Weather at Gunnison Crested Butte Regional Airport

Public forecast

Using degrees Fahrenheit for public forecast. Weather courtesy of forecast.io.

Current aviation weather report (METAR) for Gunnison Crested Butte Regional Airport

Retrieved 2020/10/30 11:56 UTC (1 hour ago):

KGUC 301156Z AUTO 00000KT 10SM CLR M06/M07 A3041 RMK AO2 SLP299 T10561072 11011 21067 53001 FZRANO

Aviation forecast (TAF) for Gunnison Crested Butte Regional Airport

Retrieved 2020/10/30 12:33 UTC (23 minutes ago):

TAF KGUC 301131Z 3012/3112 VRB03KT P6SM SKC